Time;durP1;ratioP1;P1;durP2;ratioP2;P2;SDS_P1;SDS_P2;PMS_P1;PMS_P2;Temp;Humidity;BMP_temperature;BMP_pressure;BME280_temperature;BME280_humidity;BME280_pressure;Samples;Min_cycle;Max_cycle;Signal;HPM_P1;HPM_P2
2021/06/23 00:01:56;;;;;;;1.00;0.70;;;;;;;14.67;100.00;93878.97;5158411;27;20200;-81
2021/06/23 00:04:22;;;;;;;1.80;0.65;;;;;;;14.59;100.00;93881.91;5156570;27;20193;-81
2021/06/23 00:06:49;;;;;;;1.25;0.90;;;;;;;14.53;100.00;93886.19;5156387;27;20201;-81
2021/06/23 00:09:15;;;;;;;1.55;0.93;;;;;;;14.53;100.00;93885.41;5155690;27;20204;-80
2021/06/23 00:11:45;;;;;;;2.10;0.70;;;;;;;14.54;100.00;93879.13;5154550;27;20563;-81
2021/06/23 00:14:13;;;;;;;1.70;0.60;;;;;;;14.50;100.00;93880.56;5152500;27;20197;-80
2021/06/23 00:16:41;;;;;;;0.95;0.80;;;;;;;14.50;100.00;93885.84;5149120;27;20208;-80
2021/06/23 00:19:08;;;;;;;3.08;1.00;;;;;;;14.49;100.00;93887.66;5149618;27;20276;-80
2021/06/23 00:21:35;;;;;;;1.48;0.90;;;;;;;14.42;100.00;93885.13;5144527;27;20196;-81
2021/06/23 00:24:01;;;;;;;2.15;0.77;;;;;;;14.42;100.00;93879.88;5150828;27;20193;-81
2021/06/23 00:26:28;;;;;;;1.13;0.85;;;;;;;14.46;100.00;93882.84;5149487;27;20237;-81
2021/06/23 00:28:54;;;;;;;2.72;0.73;;;;;;;14.44;100.00;93877.03;5158702;27;20195;-80
2021/06/23 00:31:22;;;;;;;4.85;0.80;;;;;;;14.48;100.00;93870.28;5154043;27;20197;-81
2021/06/23 00:33:51;;;;;;;0.95;0.60;;;;;;;14.50;100.00;93867.44;5150527;27;20200;-80
2021/06/23 00:36:18;;;;;;;0.70;0.70;;;;;;;14.50;100.00;93864.81;5140256;27;20204;-79
2021/06/23 00:38:44;;;;;;;1.35;0.98;;;;;;;14.41;100.00;93865.13;5145282;27;20220;-79
2021/06/23 00:41:16;;;;;;;1.92;0.73;;;;;;;14.31;100.00;93864.84;5145882;27;20196;-79
2021/06/23 00:43:42;;;;;;;0.80;0.80;;;;;;;14.29;100.00;93861.66;5147081;27;20217;-79
2021/06/23 00:46:09;;;;;;;1.45;1.00;;;;;;;14.19;100.00;93866.63;5139737;27;20209;-76
2021/06/23 00:48:37;;;;;;;1.67;1.13;;;;;;;14.16;100.00;93867.84;5138977;27;20204;-78
2021/06/23 00:51:05;;;;;;;0.80;0.80;;;;;;;14.16;100.00;93859.19;5138412;27;20197;-80
2021/06/23 00:53:32;;;;;;;4.88;1.02;;;;;;;14.17;100.00;93863.41;5146848;27;20193;-79
2021/06/23 00:56:00;;;;;;;3.85;1.08;;;;;;;14.17;100.00;93863.41;5143595;27;20216;-80
2021/06/23 00:58:27;;;;;;;2.80;1.13;;;;;;;14.16;100.00;93867.06;5143972;27;20232;-78
2021/06/23 01:00:57;;;;;;;1.23;0.98;;;;;;;14.18;100.00;93865.81;5146554;27;20200;-80
2021/06/23 01:03:25;;;;;;;1.20;1.00;;;;;;;14.18;100.00;93867.63;5139437;27;20211;-79
2021/06/23 01:05:54;;;;;;;1.30;0.98;;;;;;;14.15;100.00;93863.63;5142904;27;20200;-80
2021/06/23 01:08:21;;;;;;;1.60;1.10;;;;;;;14.14;100.00;93859.41;5140994;27;20204;-79
2021/06/23 01:10:47;;;;;;;1.77;1.07;;;;;;;14.13;100.00;93862.25;5144320;27;20559;-79
2021/06/23 01:13:34;;;;;;;2.20;1.23;;;;;;;14.13;100.00;93870.91;5140739;27;20646;-80
2021/06/23 01:16:04;;;;;;;1.58;0.85;;;;;;;14.13;100.00;93872.75;5136691;27;20242;-79
2021/06/23 01:18:33;;;;;;;1.47;1.20;;;;;;;14.13;100.00;93868.28;5137379;27;20225;-78
2021/06/23 01:21:01;;;;;;;3.03;1.10;;;;;;;14.07;100.00;93859.47;5138682;27;20196;-79
2021/06/23 01:23:29;;;;;;;2.28;1.00;;;;;;;14.04;100.00;93857.28;5138618;27;20204;-79
2021/06/23 01:25:55;;;;;;;1.07;0.97;;;;;;;14.04;100.00;93865.16;5137322;27;20229;-79
2021/06/23 01:28:22;;;;;;;2.78;0.98;;;;;;;14.04;100.00;93864.38;5137008;27;20200;-78
2021/06/23 01:30:49;;;;;;;1.25;1.00;;;;;;;14.03;100.00;93876.69;5136234;27;20673;-79
2021/06/23 01:33:15;;;;;;;3.60;1.02;;;;;;;14.03;100.00;93873.25;5138193;27;20655;-80
2021/06/23 01:35:46;;;;;;;2.33;1.30;;;;;;;14.04;100.00;93869.63;5138729;27;20207;-81
2021/06/23 01:38:12;;;;;;;2.47;1.40;;;;;;;14.04;100.00;93864.38;5139333;27;20228;-79
2021/06/23 01:40:40;;;;;;;3.67;1.53;;;;;;;14.04;100.00;93857.28;5140035;27;20204;-79
2021/06/23 01:43:08;;;;;;;5.43;1.47;;;;;;;14.04;100.00;93865.16;5139580;27;20192;-80
2021/06/23 01:45:35;;;;;;;2.23;1.27;;;;;;;14.02;100.00;93861.13;5141844;27;20564;-79
2021/06/23 01:48:01;;;;;;;3.47;1.40;;;;;;;13.99;100.00;93861.56;5142789;27;20208;-79
2021/06/23 01:50:28;;;;;;;3.50;1.60;;;;;;;13.97;100.00;93861.81;5140323;27;20617;-79
2021/06/23 01:52:55;;;;;;;3.63;1.27;;;;;;;13.94;100.00;93854.38;5140139;27;20192;-79
2021/06/23 01:55:30;;;;;;;2.97;1.47;;;;;;;13.93;100.00;93851.97;5140178;27;20204;-79
2021/06/23 01:58:01;;;;;;;3.73;2.20;;;;;;;13.91;100.00;93844.31;5144104;27;20236;-78
2021/06/23 02:00:35;;;;;;;2.40;1.92;;;;;;;13.91;100.00;93844.31;5151050;27;20200;-79
2021/06/23 02:03:10;;;;;;;3.13;2.07;;;;;;;13.90;100.00;93847.94;5155755;27;20185;-79
2021/06/23 02:05:43;;;;;;;5.67;1.90;;;;;;;13.88;100.00;93850.00;5152675;27;20680;-79
2021/06/23 02:08:20;;;;;;;8.25;2.50;;;;;;;13.90;100.00;93857.66;5151099;27;20203;-79
2021/06/23 02:11:03;;;;;;;5.77;3.03;;;;;;;13.90;100.00;93855.81;5149251;27;20260;-78
2021/06/23 02:14:05;;;;;;;7.38;4.50;;;;;;;14.01;100.00;93844.59;5149835;27;20196;-79
2021/06/23 02:16:35;;;;;;;9.63;5.78;;;;;;;14.06;100.00;93841.31;5145521;27;20192;-79
2021/06/23 02:19:04;;;;;;;14.20;7.30;;;;;;;14.14;100.00;93848.91;5142566;27;20220;-79
2021/06/23 02:21:31;;;;;;;11.37;7.27;;;;;;;14.12;100.00;93847.50;5146168;27;20201;-79
2021/06/23 02:24:00;;;;;;;11.93;6.77;;;;;;;14.17;100.00;93848.47;5140616;27;20257;-80
2021/06/23 02:26:27;;;;;;;9.60;6.60;;;;;;;14.15;100.00;93855.75;5142063;27;20235;-80
2021/06/23 02:28:53;;;;;;;12.68;6.28;;;;;;;14.13;100.00;93857.00;5145711;27;20268;-80
2021/06/23 02:31:20;;;;;;;11.32;6.22;;;;;;;14.13;100.00;93864.88;5147260;27;20205;-80
2021/06/23 02:33:49;;;;;;;11.15;6.85;;;;;;;14.14;100.00;93864.66;5142347;27;20232;-79
2021/06/23 02:36:15;;;;;;;15.27;5.80;;;;;;;14.06;100.00;93867.56;5138479;27;20216;-79
2021/06/23 02:38:42;;;;;;;7.50;4.82;;;;;;;13.98;100.00;93871.28;5137355;27;20232;-78
2021/06/23 02:41:08;;;;;;;7.27;5.67;;;;;;;14.01;100.00;93860.34;5138335;27;20207;-78
2021/06/23 02:43:35;;;;;;;10.52;5.80;;;;;;;13.94;100.00;93854.38;5141609;27;20260;-79
2021/06/23 02:46:02;;;;;;;10.50;6.30;;;;;;;13.93;100.00;93855.38;5144168;27;20742;-79
2021/06/23 02:48:29;;;;;;;11.70;6.37;;;;;;;13.90;100.00;93850.56;5141959;27;20364;-79
2021/06/23 02:51:02;;;;;;;10.85;6.88;;;;;;;13.89;100.00;93856.88;5143827;27;20207;-79
2021/06/23 02:53:29;;;;;;;14.00;7.27;;;;;;;13.91;100.00;93844.31;5144452;27;20200;-79
2021/06/23 02:55:57;;;;;;;12.33;7.80;;;;;;;13.93;100.00;93842.25;5141956;27;20230;-79
2021/06/23 02:58:24;;;;;;;11.85;7.63;;;;;;;13.86;100.00;93838.91;5142180;27;20235;-79
2021/06/23 03:00:52;;;;;;;14.27;8.13;;;;;;;13.87;100.00;93837.88;5144366;27;20185;-80
2021/06/23 03:03:18;;;;;;;15.20;8.43;;;;;;;13.83;100.00;93829.66;5141650;27;20278;-80
2021/06/23 03:05:45;;;;;;;15.80;9.55;;;;;;;13.87;100.00;93825.59;5143720;27;20272;-81
2021/06/23 03:08:13;;;;;;;16.23;8.93;;;;;;;13.85;100.00;93821.56;5143216;27;20216;-80
2021/06/23 03:10:40;;;;;;;16.17;9.23;;;;;;;13.82;100.00;93820.19;5140512;28;20206;-80
2021/06/23 03:13:06;;;;;;;15.03;8.47;;;;;;;13.80;100.00;93821.41;5140806;28;20200;-80
2021/06/23 03:15:33;;;;;;;15.35;8.38;;;;;;;13.80;100.00;93819.59;5144139;27;20562;-79
2021/06/23 03:18:02;;;;;;;16.13;9.90;;;;;;;13.87;100.00;93819.50;5145782;27;20247;-81
2021/06/23 03:20:28;;;;;;;18.20;10.10;;;;;;;13.91;100.00;93818.06;5146204;27;20205;-80
2021/06/23 03:22:55;;;;;;;18.52;10.23;;;;;;;13.90;100.00;93821.69;5142396;27;20930;-79
2021/06/23 03:25:22;;;;;;;21.17;10.32;;;;;;;13.93;100.00;93820.47;5140073;27;20193;-80
2021/06/23 03:27:53;;;;;;;14.47;8.57;;;;;;;13.94;100.00;93817.63;5142747;27;20236;-80
2021/06/23 03:30:20;;;;;;;16.65;10.02;;;;;;;13.94;100.00;93812.38;5143892;27;20642;-77
2021/06/23 03:32:48;;;;;;;15.90;8.23;;;;;;;13.95;100.00;93807.94;5140208;27;20675;-79
2021/06/23 03:35:15;;;;;;;18.52;9.82;;;;;;;13.92;100.00;93819.66;5139534;27;20200;-77
2021/06/23 03:37:41;;;;;;;13.87;8.00;;;;;;;13.90;100.00;93826.94;5138236;27;20193;-79
2021/06/23 03:40:08;;;;;;;18.43;9.93;;;;;;;13.99;100.00;93841.41;5138962;27;20647;-77
2021/06/23 03:42:36;;;;;;;23.55;12.75;;;;;;;14.16;100.00;93851.31;5138846;27;20204;-78
2021/06/23 03:45:04;;;;;;;20.07;12.20;;;;;;;14.27;100.00;93858.41;5138811;27;20193;-76
2021/06/23 03:47:31;;;;;;;17.88;9.95;;;;;;;14.36;100.00;93861.56;5141136;27;20201;-78
2021/06/23 03:49:57;;;;;;;15.17;9.30;;;;;;;14.38;100.00;93876.06;5144873;27;20200;-79
2021/06/23 03:52:24;;;;;;;11.87;7.87;;;;;;;14.30;100.00;93878.19;5146252;27;20205;-80
2021/06/23 03:54:50;;;;;;;15.32;9.27;;;;;;;14.26;100.00;93883.09;5146747;27;20581;-79
2021/06/23 03:57:17;;;;;;;11.73;7.90;;;;;;;14.25;100.00;93890.19;5146556;27;20200;-79
2021/06/23 03:59:45;;;;;;;19.15;9.52;;;;;;;14.28;100.00;93893.38;5143598;27;20228;-80
2021/06/23 04:02:11;;;;;;;16.43;9.40;;;;;;;14.32;100.00;93895.34;5143948;27;20230;-79
2021/06/23 04:04:38;;;;;;;16.75;9.00;;;;;;;14.37;100.00;93906.00;5151301;27;20252;-80
2021/06/23 04:07:05;;;;;;;16.23;9.20;;;;;;;14.36;100.00;93904.38;5151213;27;20288;-79
2021/06/23 04:09:31;;;;;;;17.52;9.55;;;;;;;14.36;100.00;93901.75;5149897;27;20689;-79
2021/06/23 04:11:58;;;;;;;14.03;9.23;;;;;;;14.33;100.00;93894.31;5147956;27;20196;-79
2021/06/23 04:14:24;;;;;;;16.33;10.07;;;;;;;14.35;100.00;93897.50;5144226;27;20192;-78
2021/06/23 04:16:55;;;;;;;16.27;9.32;;;;;;;14.36;100.00;93896.50;5145316;27;20211;-79
2021/06/23 04:19:22;;;;;;;18.98;10.15;;;;;;;14.40;100.00;93902.91;5148684;27;20228;-77
2021/06/23 04:21:49;;;;;;;15.60;8.95;;;;;;;14.39;100.00;93892.66;5150558;27;20532;-80
2021/06/23 04:24:15;;;;;;;14.35;8.25;;;;;;;14.33;100.00;93901.41;5140484;27;20655;-80
2021/06/23 04:26:43;;;;;;;12.30;7.20;;;;;;;14.35;100.00;93902.78;5142311;27;20230;-80
2021/06/23 04:29:10;;;;;;;10.18;7.07;;;;;;;14.29;100.00;93903.66;5141641;27;20204;-80
2021/06/23 04:31:36;;;;;;;11.33;7.07;;;;;;;14.23;100.00;93909.78;5141617;27;20201;-80
2021/06/23 04:34:04;;;;;;;10.55;6.88;;;;;;;14.20;100.00;93913.66;5143812;27;20288;-79
2021/06/23 04:36:31;;;;;;;13.75;7.03;;;;;;;14.16;100.00;93911.69;5147882;27;20191;-80
2021/06/23 04:38:57;;;;;;;13.50;6.97;;;;;;;14.09;100.00;93905.69;5143449;27;20224;-80
2021/06/23 04:41:24;;;;;;;10.68;6.82;;;;;;;14.06;100.00;93910.38;5143470;27;20273;-81
2021/06/23 04:43:50;;;;;;;7.80;5.80;;;;;;;14.01;100.00;93907.59;5144959;27;20226;-80
2021/06/23 04:46:17;;;;;;;7.53;5.93;;;;;;;13.97;100.00;93903.81;5145847;27;20200;-78
2021/06/23 04:48:44;;;;;;;12.13;6.70;;;;;;;13.98;100.00;93910.66;5142303;27;20434;-80
2021/06/23 04:51:14;;;;;;;8.70;6.17;;;;;;;13.99;100.00;93914.06;5146497;27;20659;-79
2021/06/23 04:53:40;;;;;;;6.90;4.70;;;;;;;14.03;100.00;93908.19;5151034;27;20193;-79
2021/06/23 04:56:06;;;;;;;6.45;4.10;;;;;;;14.05;100.00;93914.03;5143008;27;20207;-80
2021/06/23 04:58:33;;;;;;;4.88;3.72;;;;;;;14.06;100.00;93905.13;5140650;27;20224;-80
2021/06/23 05:01:00;;;;;;;4.28;3.30;;;;;;;14.11;100.00;93922.06;5144762;27;20602;-79
2021/06/23 05:03:26;;;;;;;5.75;3.70;;;;;;;14.17;100.00;93913.28;5144034;27;20196;-80
2021/06/23 05:05:56;;;;;;;5.70;3.50;;;;;;;14.15;100.00;93912.72;5145026;27;20203;-80
2021/06/23 05:08:26;;;;;;;5.25;3.53;;;;;;;14.10;100.00;93912.56;5151558;27;20208;-79
2021/06/23 05:10:52;;;;;;;4.45;3.00;;;;;;;14.11;100.00;93911.56;5147653;27;20201;-80
2021/06/23 05:13:18;;;;;;;4.47;3.28;;;;;;;14.07;100.00;93916.41;5147146;27;20193;-81
2021/06/23 05:15:45;;;;;;;5.20;3.47;;;;;;;14.05;100.00;93918.47;5146220;27;20251;-80
2021/06/23 05:18:13;;;;;;;4.38;3.28;;;;;;;14.03;100.00;93925.75;5145352;27;20270;-79
2021/06/23 05:20:39;;;;;;;6.25;4.10;;;;;;;14.16;100.00;93930.09;5145233;27;20433;-78
2021/06/23 05:23:06;;;;;;;3.92;2.90;;;;;;;14.22;100.00;93932.63;5151908;27;20207;-78
2021/06/23 05:25:33;;;;;;;5.75;2.55;;;;;;;14.52;100.00;93933.69;5148968;27;20655;-78
2021/06/23 05:28:00;;;;;;;3.00;2.33;;;;;;;14.83;100.00;93942.44;5148664;27;20197;-79
2021/06/23 05:30:27;;;;;;;2.65;2.13;;;;;;;15.13;100.00;93943.22;5143810;27;20204;-81
2021/06/23 05:32:54;;;;;;;3.92;2.40;;;;;;;15.41;100.00;93947.09;5143628;27;20200;-80
2021/06/23 05:35:21;;;;;;;3.25;2.60;;;;;;;15.54;100.00;93946.09;5142158;27;20204;-80
2021/06/23 05:37:48;;;;;;;2.67;1.85;;;;;;;16.12;100.00;93944.53;5146155;27;20196;-81
2021/06/23 05:40:15;;;;;;;4.63;1.60;;;;;;;17.30;100.00;93941.56;5142029;27;20228;-81
2021/06/23 05:42:43;;;;;;;1.48;1.00;;;;;;;19.28;100.00;93936.81;5145896;27;20196;-80
2021/06/23 05:45:10;;;;;;;5.25;1.33;;;;;;;19.77;100.00;93940.19;5145136;27;20207;-81
2021/06/23 05:47:37;;;;;;;1.08;0.73;;;;;;;20.81;100.00;93941.59;5142255;27;20263;-82
2021/06/23 05:50:04;;;;;;;1.15;0.70;;;;;;;21.62;100.00;93937.56;5143705;27;20201;-81
2021/06/23 05:52:30;;;;;;;0.95;0.55;;;;;;;22.30;92.58;93928.47;5146042;27;20196;-81
2021/06/23 05:54:57;;;;;;;2.15;0.70;;;;;;;22.21;86.19;93932.72;5145610;27;20264;-80
2021/06/23 05:57:23;;;;;;;5.22;0.73;;;;;;;23.19;81.71;93943.84;5143707;27;20200;-80
2021/06/23 05:59:51;;;;;;;1.88;0.50;;;;;;;22.95;79.29;93939.16;5143245;27;20239;-80
2021/06/23 06:02:18;;;;;;;1.90;0.52;;;;;;;23.68;78.36;93935.03;5145465;27;20193;-80
2021/06/23 06:04:44;;;;;;;0.43;0.43;;;;;;;24.24;76.50;93935.63;5144372;27;20283;-80
2021/06/23 06:07:11;;;;;;;1.88;0.75;;;;;;;24.22;73.34;93937.78;5145008;27;20211;-79
2021/06/23 06:09:37;;;;;;;1.17;0.60;;;;;;;24.42;72.57;93936.78;5144242;27;20218;-80
2021/06/23 06:12:05;;;;;;;1.10;0.40;;;;;;;24.65;71.43;93941.38;5149001;27;20200;-80
2021/06/23 06:14:31;;;;;;;1.50;0.40;;;;;;;25.25;69.84;93946.22;5150924;27;20441;-80
2021/06/23 06:17:00;;;;;;;0.82;0.40;;;;;;;25.42;67.16;93947.63;5153851;27;20197;-79
2021/06/23 06:19:30;;;;;;;3.08;0.50;;;;;;;25.26;66.69;93950.53;5152738;27;20227;-79
2021/06/23 06:21:56;;;;;;;0.20;0.20;;;;;;;25.92;67.11;93944.47;5148979;27;20211;-79
2021/06/23 06:24:23;;;;;;;1.80;0.50;;;;;;;24.64;71.60;93939.75;5147787;27;20201;-80
2021/06/23 06:26:49;;;;;;;0.80;0.40;;;;;;;23.74;75.99;93941.09;5147043;27;20221;-79
2021/06/23 06:29:16;;;;;;;2.90;0.40;;;;;;;23.70;75.19;93942.72;5149124;27;20201;-79
2021/06/23 06:31:42;;;;;;;0.63;0.50;;;;;;;23.21;76.88;93945.16;5149431;27;20197;-79
2021/06/23 06:34:10;;;;;;;0.47;0.40;;;;;;;22.32;81.34;93937.00;5149317;27;20181;-79
2021/06/23 06:36:37;;;;;;;0.68;0.50;;;;;;;21.92;85.56;93947.38;5151238;27;20197;-79
2021/06/23 06:39:04;;;;;;;1.23;0.40;;;;;;;21.46;90.14;93941.22;5148513;27;20224;-79
2021/06/23 06:41:36;;;;;;;2.90;0.70;;;;;;;20.81;88.66;93952.22;5147677;27;20627;-79
2021/06/23 06:44:02;;;;;;;1.40;0.50;;;;;;;21.11;89.07;93951.50;5148864;27;20201;-79
2021/06/23 06:46:29;;;;;;;1.45;0.82;;;;;;;21.06;90.98;93944.31;5149393;27;20651;-79
2021/06/23 06:48:55;;;;;;;1.63;0.55;;;;;;;21.04;91.85;93950.97;5150289;27;20231;-78
2021/06/23 06:51:23;;;;;;;2.38;0.68;;;;;;;20.94;92.57;93950.94;5147390;27;20204;-79
2021/06/23 06:53:50;;;;;;;0.60;0.50;;;;;;;20.81;94.64;93947.69;5150520;27;20199;-79
2021/06/23 06:56:16;;;;;;;1.50;0.60;;;;;;;20.56;97.13;93951.00;5148952;27;20227;-79
2021/06/23 06:58:43;;;;;;;1.17;0.60;;;;;;;20.74;96.29;93951.66;5151355;27;20201;-78
2021/06/23 07:01:09;;;;;;;1.05;0.50;;;;;;;21.06;94.19;93952.28;5152944;27;20197;-79
2021/06/23 07:03:36;;;;;;;0.93;0.57;;;;;;;21.19;89.28;93953.66;5152740;27;20269;-79
2021/06/23 07:06:02;;;;;;;0.80;0.40;;;;;;;20.66;91.66;93950.28;5154287;27;20200;-78
2021/06/23 07:08:30;;;;;;;1.02;0.70;;;;;;;20.48;96.44;93954.97;5153115;27;20256;-78
2021/06/23 07:10:57;;;;;;;2.50;0.60;;;;;;;20.80;94.16;93955.91;5153467;28;20225;-79
2021/06/23 07:13:24;;;;;;;2.33;1.00;;;;;;;20.47;99.00;93957.88;5154065;28;20192;-78
2021/06/23 07:15:50;;;;;;;1.15;0.77;;;;;;;19.81;99.21;93959.03;5154455;28;20242;-76
2021/06/23 07:18:19;;;;;;;1.13;0.80;;;;;;;19.44;100.00;93962.41;5153018;28;20200;-78
2021/06/23 07:20:46;;;;;;;1.77;0.60;;;;;;;19.27;100.00;93967.00;5151392;28;20319;-80
2021/06/23 07:23:12;;;;;;;1.48;0.95;;;;;;;19.20;100.00;93965.34;5153785;28;20271;-80
2021/06/23 07:25:40;;;;;;;1.90;0.98;;;;;;;19.18;100.00;93964.78;5152917;28;20202;-79
2021/06/23 07:28:09;;;;;;;2.25;0.90;;;;;;;19.28;100.00;93965.94;5145199;28;20201;-77
2021/06/23 07:30:40;;;;;;;1.00;0.70;;;;;;;19.35;97.00;93966.53;5137720;28;20224;-77
2021/06/23 07:33:08;;;;;;;1.70;0.90;;;;;;;19.45;93.26;93974.59;5143788;28;20204;-76
2021/06/23 07:38:19;;;;;;;1.52;1.00;;;;;;;20.02;96.54;93975.06;5133979;28;20281;-78
2021/06/23 07:40:53;;;;;;;1.60;0.90;;;;;;;20.22;97.66;93977.88;5140277;28;20248;-77
2021/06/23 07:43:20;;;;;;;1.50;0.90;;;;;;;20.10;100.00;93969.31;5138616;28;20200;-81
2021/06/23 07:45:49;;;;;;;1.77;1.00;;;;;;;20.08;99.21;93976.72;5137828;28;20648;-80
2021/06/23 07:48:16;;;;;;;1.98;0.95;;;;;;;19.99;96.74;93972.97;5143776;28;20208;-78
2021/06/23 07:50:47;;;;;;;1.05;0.70;;;;;;;20.06;98.28;93968.22;5142303;28;20204;-81
2021/06/23 07:53:20;;;;;;;1.67;0.80;;;;;;;20.48;100.00;93973.53;5139742;28;20197;-77
2021/06/23 07:55:51;;;;;;;1.15;0.80;;;;;;;20.91;99.60;93968.16;5138539;28;20208;-80
2021/06/23 08:01:30;;;;;;;1.70;1.20;;;;;;;20.70;100.00;93973.41;5138064;27;20228;-80
2021/06/23 08:09:31;;;;;;;1.52;1.00;;;;;;;20.17;100.00;93979.69;5141866;27;20276;-81
2021/06/23 08:12:15;;;;;;;1.63;1.17;;;;;;;20.12;100.00;93975.16;5142083;27;20295;-79
2021/06/23 08:14:42;;;;;;;1.17;0.90;;;;;;;19.91;100.00;93971.56;5140850;27;20205;-82
2021/06/23 08:17:09;;;;;;;1.00;0.90;;;;;;;19.54;100.00;93967.78;5144094;27;20257;-79
2021/06/23 08:19:36;;;;;;;2.25;0.90;;;;;;;19.42;100.00;93967.16;5147093;27;20224;-79
2021/06/23 08:22:04;;;;;;;1.50;0.93;;;;;;;19.16;100.00;93960.81;5147427;27;20200;-78
2021/06/23 08:24:30;;;;;;;2.00;1.13;;;;;;;18.96;100.00;93962.16;5148660;27;20196;-81
2021/06/23 08:27:03;;;;;;;2.53;1.10;;;;;;;18.88;100.00;93954.69;5146604;27;20315;-82
2021/06/23 08:29:30;;;;;;;3.50;0.98;;;;;;;18.65;100.00;93968.91;5140399;27;20207;-82
2021/06/23 08:31:57;;;;;;;1.10;1.00;;;;;;;18.66;100.00;93962.59;5136567;27;20204;-81
2021/06/23 08:34:25;;;;;;;1.10;0.93;;;;;;;18.65;100.00;93963.63;5139293;27;20292;-82
2021/06/23 08:36:52;;;;;;;1.45;0.85;;;;;;;18.73;100.00;93968.50;5147138;27;20204;-82
2021/06/23 08:39:18;;;;;;;1.88;0.98;;;;;;;18.78;100.00;93957.97;5147012;27;20200;-81
2021/06/23 08:41:45;;;;;;;2.75;1.08;;;;;;;18.97;100.00;93957.69;5142935;27;20200;-82
2021/06/23 08:44:12;;;;;;;2.58;0.90;;;;;;;19.10;100.00;93962.59;5124055;27;20200;-80
2021/06/23 08:46:40;;;;;;;1.10;0.90;;;;;;;19.45;100.00;93957.91;5140439;27;20222;-81
2021/06/23 08:49:10;;;;;;;2.53;1.00;;;;;;;19.64;100.00;93958.34;5139725;27;20214;-83
2021/06/23 08:51:39;;;;;;;1.10;1.00;;;;;;;20.21;98.30;93956.94;5139756;27;20228;-81
2021/06/23 08:54:06;;;;;;;1.15;0.70;;;;;;;20.50;93.63;93957.34;5139896;27;20562;-81
2021/06/23 08:56:33;;;;;;;1.80;0.80;;;;;;;20.50;90.62;93957.34;5137517;27;20551;-80
2021/06/23 08:59:02;;;;;;;1.55;0.90;;;;;;;20.75;89.53;93948.75;5138210;27;20724;-78
2021/06/23 09:01:28;;;;;;;2.38;0.90;;;;;;;20.83;91.39;93952.75;5136851;27;20453;-79
2021/06/23 09:04:05;;;;;;;1.52;0.82;;;;;;;21.28;92.78;93951.28;5137850;27;20204;-78
2021/06/23 09:06:47;;;;;;;2.60;0.90;;;;;;;21.00;85.49;93949.88;5138270;27;20215;-79
2021/06/23 09:09:19;;;;;;;0.88;0.80;;;;;;;21.02;86.00;93943.25;5138646;27;20654;-78
2021/06/23 09:11:46;;;;;;;2.50;0.80;;;;;;;21.13;88.18;93948.59;5137586;27;20205;-80
2021/06/23 09:14:14;;;;;;;1.05;0.68;;;;;;;21.16;85.76;93948.88;5137643;27;20232;-80
2021/06/23 09:17:06;;;;;;;1.65;0.75;;;;;;;20.82;88.32;93951.97;5137105;27;20199;-80
2021/06/23 09:19:36;;;;;;;1.20;0.70;;;;;;;20.34;88.82;93951.97;5137613;27;20201;-78
2021/06/23 09:22:03;;;;;;;2.00;0.80;;;;;;;20.28;91.23;93953.00;5138199;27;20197;-78
2021/06/23 09:24:38;;;;;;;0.80;0.80;;;;;;;20.23;96.31;93942.34;5137888;27;20567;-80
2021/06/23 09:27:19;;;;;;;1.50;0.75;;;;;;;20.79;91.83;93954.34;5139060;27;20254;-77
2021/06/23 09:29:46;;;;;;;2.25;0.80;;;;;;;21.39;85.77;93952.09;5138691;27;20200;-81
2021/06/23 09:32:12;;;;;;;1.20;0.85;;;;;;;21.55;89.52;93942.31;5135906;27;20201;-77
2021/06/23 09:34:43;;;;;;;2.05;0.80;;;;;;;21.64;84.18;93948.72;5136644;27;20193;-80
2021/06/23 09:37:28;;;;;;;1.45;0.70;;;;;;;21.54;86.97;93943.38;5136813;27;20193;-78
2021/06/23 09:40:14;;;;;;;2.13;0.60;;;;;;;21.55;88.32;93937.00;5115099;28;20225;-77
2021/06/23 09:42:42;;;;;;;2.63;0.68;;;;;;;21.97;84.23;93935.94;5115126;28;20497;-79
2021/06/23 09:45:13;;;;;;;2.40;0.60;;;;;;;21.94;82.72;93934.59;5116598;28;20205;-79
2021/06/23 09:47:40;;;;;;;2.15;0.88;;;;;;;21.52;83.29;93940.22;5117107;28;20236;-80
2021/06/23 09:50:11;;;;;;;1.25;0.95;;;;;;;21.93;79.30;93937.53;5118567;28;20228;-78
2021/06/23 09:52:51;;;;;;;1.17;0.80;;;;;;;21.89;84.29;93939.16;5117842;28;20227;-80
2021/06/23 09:55:18;;;;;;;0.60;0.55;;;;;;;22.20;81.34;93939.09;5116943;28;20190;-81
2021/06/23 09:58:11;;;;;;;0.90;0.60;;;;;;;23.15;81.83;93934.81;5122773;28;20194;-81
2021/06/23 10:00:57;;;;;;;8.68;0.70;;;;;;;22.82;78.52;93932.56;5117013;28;20229;-81
2021/06/23 10:03:23;;;;;;;2.13;0.70;;;;;;;22.90;78.41;93932.00;5117298;28;20202;-80
2021/06/23 10:05:51;;;;;;;1.65;0.60;;;;;;;23.23;77.07;93923.56;5116958;28;20198;-81
2021/06/23 10:08:23;;;;;;;0.90;0.60;;;;;;;22.83;74.00;93925.34;5115833;28;20225;-80
2021/06/23 10:10:50;;;;;;;1.02;0.70;;;;;;;22.43;75.94;93922.59;5116083;27;20233;-81
2021/06/23 10:13:17;;;;;;;0.77;0.60;;;;;;;22.49;75.35;93924.16;5116545;28;20250;-81
2021/06/23 10:15:44;;;;;;;0.65;0.65;;;;;;;22.44;76.99;93912.75;5113768;28;20201;-80
2021/06/23 10:18:14;;;;;;;0.43;0.40;;;;;;;22.64;73.12;93923.31;5117682;28;20194;-82
2021/06/23 10:20:41;;;;;;;0.70;0.55;;;;;;;22.98;71.48;93927.16;5118477;28;20221;-82
2021/06/23 10:23:08;;;;;;;1.48;0.50;;;;;;;23.75;74.12;93914.16;5120409;28;20584;-81
2021/06/23 10:25:35;;;;;;;0.47;0.47;;;;;;;24.16;70.78;93919.16;5121748;28;20201;-82
2021/06/23 10:28:03;;;;;;;1.05;0.60;;;;;;;24.48;70.60;93915.09;5127546;28;20201;-81
2021/06/23 10:30:30;;;;;;;3.00;0.93;;;;;;;23.86;70.60;93920.22;5134673;28;20201;-82
2021/06/23 10:32:58;;;;;;;1.50;0.68;;;;;;;23.91;71.97;93920.16;5131984;28;20666;-79
2021/06/23 10:35:26;;;;;;;4.95;0.60;;;;;;;24.42;74.99;93921.56;5126037;28;20288;-82
2021/06/23 10:37:54;;;;;;;1.02;0.57;;;;;;;24.34;66.63;93920.28;5127753;28;20204;-81
2021/06/23 10:40:22;;;;;;;1.13;0.60;;;;;;;24.27;67.72;93925.19;5130407;28;20312;-81
2021/06/23 10:42:49;;;;;;;1.05;0.47;;;;;;;24.43;69.79;93927.69;5125121;28;20560;-80
2021/06/23 10:45:16;;;;;;;0.60;0.40;;;;;;;24.31;71.02;93930.75;5128202;28;20204;-80
2021/06/23 10:47:45;;;;;;;1.02;0.40;;;;;;;24.06;65.89;93932.56;5124186;28;20224;-81
2021/06/23 10:50:36;;;;;;;0.73;0.50;;;;;;;24.15;68.14;93938.91;5125256;28;20663;-81
2021/06/23 10:53:07;;;;;;;0.80;0.30;;;;;;;24.35;67.14;93937.91;5123862;28;20201;-80
2021/06/23 10:55:46;;;;;;;0.57;0.47;;;;;;;24.35;68.09;93937.13;5125149;28;20211;-80
2021/06/23 10:58:15;;;;;;;0.82;0.40;;;;;;;23.75;68.00;93940.81;5119397;28;20667;-80
2021/06/23 11:00:47;;;;;;;0.98;0.30;;;;;;;23.46;69.23;93933.56;5120627;28;20692;-81
2021/06/23 11:03:16;;;;;;;0.30;0.30;;;;;;;23.57;67.44;93944.94;5120679;28;20220;-81
2021/06/23 11:05:49;;;;;;;0.65;0.30;;;;;;;23.90;64.74;93942.59;5121194;28;20304;-80
2021/06/23 11:08:33;;;;;;;0.60;0.30;;;;;;;23.54;67.29;93934.06;5120795;28;20201;-80
2021/06/23 11:11:04;;;;;;;0.30;0.30;;;;;;;24.17;66.52;93926.06;5121477;28;20258;-80
2021/06/23 11:13:33;;;;;;;1.85;0.35;;;;;;;24.85;67.97;93932.31;5126551;28;20212;-80
2021/06/23 11:16:03;;;;;;;0.30;0.30;;;;;;;24.69;66.69;93931.69;5118321;28;20552;-80
2021/06/23 11:18:35;;;;;;;1.67;0.30;;;;;;;25.22;64.45;93930.75;5116601;28;20774;-81
2021/06/23 11:21:13;;;;;;;0.63;0.45;;;;;;;25.08;62.05;93928.03;5113623;28;20225;-80
2021/06/23 11:23:56;;;;;;;0.30;0.30;;;;;;;25.55;65.96;93920.16;5118711;28;20292;-80
2021/06/23 11:27:03;;;;;;;0.60;0.40;;;;;;;25.35;65.80;93909.75;5118538;28;20286;-80
2021/06/23 11:29:37;;;;;;;1.58;0.40;;;;;;;24.35;66.29;93915.78;5117531;28;20197;-81
2021/06/23 11:32:09;;;;;;;1.25;0.57;;;;;;;23.14;71.77;93915.38;5117892;28;20228;-80
2021/06/23 11:34:59;;;;;;;0.40;0.40;;;;;;;22.25;75.21;93910.63;5117915;28;20201;-80
2021/06/23 11:37:31;;;;;;;1.10;0.68;;;;;;;22.42;76.50;93921.00;5117992;28;20664;-80
2021/06/23 11:40:20;;;;;;;0.88;0.45;;;;;;;22.30;76.50;93923.13;5122260;28;20228;-80
2021/06/23 11:42:48;;;;;;;0.57;0.40;;;;;;;22.46;77.75;93921.25;5122256;28;20536;-80
2021/06/23 11:45:17;;;;;;;2.38;0.50;;;;;;;22.66;78.56;93921.16;5122536;28;20226;-81
2021/06/23 11:47:44;;;;;;;0.50;0.50;;;;;;;23.09;77.67;93915.41;5123515;28;20205;-81